Photo de Laille
Rennes
quelques nuages
Metar : 2018/05/26 21:00 LFRN 262100Z AUTO 14005KT 9999 FEW022 16/15 Q1013 NOSIG
Couverture nuageuse : Few Clouds 2200 ft
Pression de 29.91 inHg (1013 hPa)
Humidité : 94%
Température : 61°F (16°C)
Vent de SE at 6 mph (9 km/h)
Visibilité : 6 miles (10 km)
Nantes
quelques nuages
Metar : 2018/05/26 21:00 LFRS 262100Z AUTO 21003KT 180V240 9999 FEW017 17/15 Q1013 NOSIG
Couverture nuageuse : Few Clouds 1700 ft
Traduc : Partly cloudy 700 ft
Pression de 29.91 inHg (1013 hPa)
Humidité : 88%
Température : 63°F (17°C)
Point de rosée : 59°F (15°C)
Vent de SSW at 3 mph (6 km/h)
Visibilité : 6 miles (10 km)
Lannion
Brume, Orageux
Metar : 2018/05/26 21:00 LFRO 262100Z AUTO VRB03KT 4200 BR ///TCU 14/13 Q1011
Couverture nuageuse :
Traduc : Partly cloudy 700 ft
Pression de 29.85 inHg (1011 hPa)
Humidité : 94%
Température : 57°F (14°C)
Point de rosée : 55°F (13°C)
Vent de varies at 3 mph (6 km/h)
Visibilité : 3 miles (4 km)
Dinard
Orageux
Metar : 2018/05/26 21:00 LFRD 262100Z AUTO 17006KT 130V190 9999 ///CB 17/15 Q1012 BECMG BKN010
Couverture nuageuse :
Traduc : Partly cloudy 700 ft
Pression de 29.88 inHg (1012 hPa)
Humidité : 88%
Température : 63°F (17°C)
Point de rosée : 59°F (15°C)
Vent de S at 7 mph (11 km/h)
Visibilité : 6 miles (10 km)
Brest

Metar : 2018/05/26 21:00 LFRB 262100Z AUTO 07002KT 1600 0550 R25/2000D R07/1400U BCFG BKN003 OVC110 14/14 Q1012 TEMPO 0300 FG VV///
Couverture nuageuse :
Traduc : Partly cloudy 700 ft
Pression de
Humidité :
Température :
Point de rosée :
Vent de ENE at 2 mph (4 km/h)
Visibilité : 1 mile (2 km)
Quimper
couvert
Metar : 2018/05/26 21:00 LFRQ 262100Z AUTO 00000KT 6000 OVC015 16/15 Q1012 TEMPO BKN010 SCT015CB BECMG 3000 BR
Couverture nuageuse : Overcast 1500 ft
Traduc : Partly cloudy 700 ft
Pression de 29.88 inHg (1012 hPa)
Humidité : 94%
Température : 61°F (16°C)
Point de rosée : 59°F (15°C)
Vent de calm
Visibilité : 4 miles (6 km)
St Nazaire
couvert
Metar : 2018/05/26 21:00 LFRZ 262100Z AUTO 19007KT 9999 OVC016 17/16 Q1013 BECMG BKN008 BKN050
Couverture nuageuse : Overcast 1600 ft
Traduc : Partly cloudy 700 ft
Pression de 29.91 inHg (1013 hPa)
Humidité : 94%
Température : 63°F (17°C)
Point de rosée : 61°F (16°C)
Vent de S at 8 mph (13 km/h)
Visibilité : 6 miles (10 km)
St Brieuc
Brume, Orage à proximité, Orageux
Metar : 2018/05/26 21:00 LFRT 262100Z AUTO 08009KT 060V120 4100 BR VCTS SCT005/// BKN032/// BKN100/// ///CB 15/14 Q1012
Couverture nuageuse : Partly Cloudy 500 ft Mostly Cloudy 3200 ft Mostly Cloudy 10000 ft
Traduc : Partly cloudy 700 ft
Pression de 29.88 inHg (1012 hPa)
Humidité : 94%
Température : 59°F (15°C)
Point de rosée : 57°F (14°C)
Vent de E at 10 mph (17 km/h)
Visibilité : 3 miles (4 km)
Lorient
couvert
Metar : 2018/05/26 21:00 LFRH 262100Z AUTO 18003KT 6000 BKN021 OVC026 17/16 Q1012 TEMPO 0800 FG BKN020CB
Couverture nuageuse : Mostly Cloudy 2100 ft Overcast 2600 ft
Traduc : Partly cloudy 700 ft
Pression de 29.88 inHg (1012 hPa)
Humidité : 94%
Température : 63°F (17°C)
Point de rosée : 61°F (16°C)
Vent de S at 3 mph (6 km/h)
Visibilité : 4 miles (6 km)
Vannes-Meucon
Légèrement orageux, Pluie, Orageux
Metar : 2018/05/26 18:00 LFRV 261800Z AUTO 16004KT 130V220 9999 -TSRA FEW014/// SCT021/// BKN027/// ///CB 21/18 Q1010
Couverture nuageuse : Few Clouds 1400 ft Partly Cloudy 2100 ft Mostly Cloudy 2700 ft
Traduc : Partly cloudy 700 ft
Pression de 29.83 inHg (1010 hPa)
Humidité : 83%
Température : 70°F (21°C)
Point de rosée : 64°F (18°C)
Vent de SSE at 5 mph (7 km/h)
Visibilité : 6 miles (10 km)

 


   Weather Underground PWS IBRETAGN39      Weather Underground PWS IBRETAGN39Retour Météo-Laillé adhérent de Météo-Bretagne et d'Infoclimat. Données mises à jour en temps réel via Météolink Climatologie réalisée sous Wswin et GraphWeather.

Affichage prévisions météo de WeatherUnderground via script PHP de Saratoga.

Copyright 2012-2018